createdAt,value
2022-11-28T00:01:27.714Z,18.90
2022-11-28T00:03:55.028Z,17.52
2022-11-28T00:06:22.730Z,9.30
2022-11-28T00:08:50.008Z,11.65
2022-11-28T00:11:18.253Z,13.60
2022-11-28T00:13:46.673Z,11.65
2022-11-28T00:16:21.855Z,7.88
2022-11-28T00:21:20.468Z,16.23
2022-11-28T00:23:49.556Z,17.15
2022-11-28T00:26:29.996Z,16.60
2022-11-28T00:28:58.750Z,12.00
2022-11-28T00:31:29.327Z,9.48
2022-11-28T00:33:57.346Z,14.07
2022-11-28T00:36:25.489Z,13.95
2022-11-28T00:38:52.777Z,10.55
2022-11-28T00:41:27.551Z,25.88
2022-11-28T00:43:55.314Z,10.25
2022-11-28T00:46:23.658Z,17.33
2022-11-28T00:48:51.405Z,12.02
2022-11-28T00:51:27.619Z,10.70
2022-11-28T00:53:57.634Z,13.63
2022-11-28T00:56:36.920Z,13.00
2022-11-28T00:59:05.102Z,12.65
2022-11-28T01:01:35.165Z,12.20
2022-11-28T01:04:05.164Z,16.48
2022-11-28T01:06:35.405Z,22.15
2022-11-28T01:09:06.446Z,12.27
2022-11-28T01:11:34.063Z,13.02
2022-11-28T01:14:02.523Z,13.13
2022-11-28T01:16:30.779Z,11.25
2022-11-28T01:18:58.538Z,12.52
2022-11-28T01:21:26.349Z,10.15
2022-11-28T01:23:53.857Z,10.02
2022-11-28T01:26:24.173Z,10.55
2022-11-28T01:28:51.888Z,11.85
2022-11-28T01:31:22.174Z,10.65
2022-11-28T01:33:49.824Z,14.70
2022-11-28T01:36:18.557Z,10.25
2022-11-28T01:38:46.577Z,11.40
2022-11-28T01:41:14.996Z,14.35
2022-11-28T01:44:02.185Z,11.27
2022-11-28T01:46:30.444Z,17.00
2022-11-28T01:49:03.211Z,18.23
2022-11-28T01:51:31.620Z,13.48
2022-11-28T01:54:00.370Z,12.35
2022-11-28T01:56:32.103Z,13.27
2022-11-28T01:59:03.517Z,16.63
2022-11-28T02:01:31.326Z,16.58
2022-11-28T02:03:59.758Z,15.88
2022-11-28T02:06:28.544Z,13.98
2022-11-28T02:08:56.521Z,11.55
2022-11-28T02:11:56.433Z,15.95
2022-11-28T02:14:50.609Z,11.27
2022-11-28T02:17:59.333Z,12.52
2022-11-28T02:20:48.264Z,9.93
2022-11-28T02:23:41.011Z,11.88
2022-11-28T02:26:36.022Z,11.75
2022-11-28T02:29:40.694Z,11.68
2022-11-28T02:32:26.387Z,12.70
2022-11-28T02:37:43.857Z,12.68
2022-11-28T02:40:24.057Z,15.63
2022-11-28T02:43:12.010Z,15.52
2022-11-28T02:45:54.457Z,20.02
2022-11-28T02:48:30.638Z,15.10
2022-11-28T02:51:17.107Z,12.18
2022-11-28T02:53:46.144Z,13.45
2022-11-28T02:56:13.984Z,11.85
2022-11-28T02:58:41.182Z,12.95
2022-11-28T03:01:21.404Z,19.85
2022-11-28T03:04:31.588Z,11.98
2022-11-28T03:07:13.874Z,14.30
2022-11-28T03:09:44.057Z,10.65
2022-11-28T03:12:20.516Z,10.75
2022-11-28T03:14:56.114Z,11.35
2022-11-28T03:17:44.461Z,12.10
2022-11-28T03:20:40.093Z,12.00
2022-11-28T03:23:33.915Z,16.15
2022-11-28T03:26:16.657Z,13.40
2022-11-28T03:28:55.581Z,22.10
2022-11-28T03:31:34.497Z,13.05
2022-11-28T03:34:04.710Z,17.05
2022-11-28T03:36:46.074Z,17.27
2022-11-28T03:39:18.060Z,16.98
2022-11-28T03:42:11.148Z,10.98
2022-11-28T03:45:04.235Z,13.85
2022-11-28T03:47:39.380Z,15.90
2022-11-28T03:50:12.799Z,9.63
2022-11-28T03:52:46.330Z,10.00
2022-11-28T03:55:36.933Z,21.33
2022-11-28T03:58:08.474Z,15.18
2022-11-28T04:00:41.907Z,13.02
2022-11-28T04:03:36.903Z,11.90
2022-11-28T04:06:15.175Z,15.98
2022-11-28T04:08:49.950Z,13.23
2022-11-28T04:11:23.162Z,12.40
2022-11-28T04:14:22.434Z,13.48
2022-11-28T04:16:55.122Z,17.05
2022-11-28T04:19:44.186Z,12.40
2022-11-28T04:22:35.427Z,12.90
2022-11-28T04:25:07.471Z,16.98
2022-11-28T04:27:49.032Z,10.95
2022-11-28T04:30:16.681Z,12.93
2022-11-28T04:32:50.571Z,17.77
2022-11-28T04:35:33.785Z,13.15
2022-11-28T04:38:03.688Z,14.77
2022-11-28T04:40:35.297Z,12.73
2022-11-28T04:43:10.089Z,13.40
2022-11-28T04:45:52.153Z,13.00
2022-11-28T04:48:19.808Z,12.25
2022-11-28T04:51:16.521Z,14.82
2022-11-28T04:54:09.279Z,14.38
2022-11-28T04:56:59.562Z,17.17
2022-11-28T04:59:28.987Z,14.30
2022-11-28T05:01:58.576Z,14.43
2022-11-28T05:04:26.069Z,25.73
2022-11-28T05:07:04.942Z,17.95
2022-11-28T05:09:32.588Z,18.60
2022-11-28T05:11:59.861Z,18.20
2022-11-28T05:14:27.389Z,17.80
2022-11-28T05:16:54.833Z,18.63
2022-11-28T05:19:22.354Z,17.95
2022-11-28T05:21:49.555Z,13.93
2022-11-28T05:24:16.780Z,22.95
2022-11-28T05:26:43.809Z,22.50
2022-11-28T05:29:11.260Z,18.90
2022-11-28T05:31:39.090Z,17.95
2022-11-28T05:34:06.420Z,19.40
2022-11-28T05:36:33.902Z,14.32
2022-11-28T05:39:01.186Z,18.65
2022-11-28T05:41:30.770Z,21.45
2022-11-28T05:43:59.529Z,16.33
2022-11-28T05:46:28.215Z,24.23
2022-11-28T05:48:55.865Z,22.15
2022-11-28T05:51:23.556Z,16.17
2022-11-28T05:53:50.943Z,16.00
2022-11-28T05:56:22.581Z,17.15
2022-11-28T05:58:50.457Z,20.42
2022-11-28T06:01:21.434Z,14.63
2022-11-28T06:03:48.639Z,17.15
2022-11-28T06:06:18.957Z,20.77
2022-11-28T06:08:48.060Z,15.15
2022-11-28T06:11:16.617Z,21.80
2022-11-28T06:13:45.733Z,17.42
2022-11-28T06:16:19.142Z,13.07
2022-11-28T06:18:46.599Z,13.32
2022-11-28T06:21:15.493Z,19.83
2022-11-28T06:23:44.236Z,20.17
2022-11-28T06:26:17.760Z,15.98
2022-11-28T06:28:45.749Z,18.98
2022-11-28T06:31:15.900Z,17.15
2022-11-28T06:33:43.174Z,20.20
2022-11-28T06:36:11.972Z,17.35
2022-11-28T06:38:39.163Z,18.08
2022-11-28T06:41:10.265Z,14.93
2022-11-28T06:43:37.656Z,16.20
2022-11-28T06:46:05.421Z,23.20
2022-11-28T06:48:32.828Z,19.42
2022-11-28T06:51:07.395Z,20.27
2022-11-28T06:53:36.114Z,17.40
2022-11-28T06:56:11.483Z,31.95
2022-11-28T06:58:38.800Z,24.92
2022-11-28T07:01:12.896Z,24.10
2022-11-28T07:03:40.736Z,19.30
2022-11-28T07:06:08.692Z,22.40
2022-11-28T07:08:36.869Z,17.45
2022-11-28T07:11:20.089Z,23.80
2022-11-28T07:13:49.563Z,23.13
2022-11-28T07:16:22.705Z,18.88
2022-11-28T07:18:51.024Z,20.42
2022-11-28T07:21:18.349Z,22.75
2022-11-28T07:23:46.431Z,16.42
2022-11-28T07:26:15.833Z,17.60
2022-11-28T07:28:43.421Z,19.00
2022-11-28T07:31:23.699Z,17.45
2022-11-28T07:33:51.651Z,20.75
2022-11-28T07:36:25.614Z,20.02
2022-11-28T07:38:55.350Z,16.63
2022-11-28T07:41:26.495Z,23.02
2022-11-28T07:43:57.195Z,23.25
2022-11-28T07:46:26.150Z,18.38
2022-11-28T07:48:54.136Z,26.58
2022-11-28T07:51:24.423Z,24.55
2022-11-28T07:53:52.280Z,20.63
2022-11-28T07:56:22.419Z,18.63
2022-11-28T07:58:50.069Z,19.20
2022-11-28T08:01:20.460Z,17.45
2022-11-28T08:03:49.132Z,22.15
2022-11-28T08:06:18.321Z,16.23
2022-11-28T08:08:47.359Z,19.48
2022-11-28T08:11:16.633Z,16.45
2022-11-28T08:13:44.410Z,25.15
2022-11-28T08:16:19.170Z,16.45
2022-11-28T08:18:47.823Z,18.90
2022-11-28T08:21:27.123Z,18.25
2022-11-28T08:23:56.316Z,18.60
2022-11-28T08:26:28.957Z,15.70
2022-11-28T08:28:57.081Z,13.68
2022-11-28T08:31:29.919Z,14.77
2022-11-28T08:34:02.220Z,16.42
2022-11-28T08:36:29.743Z,20.40
2022-11-28T08:39:16.577Z,16.98
2022-11-28T08:41:45.228Z,16.45
2022-11-28T08:44:12.493Z,19.33
2022-11-28T08:46:39.725Z,16.65
2022-11-28T08:49:07.713Z,18.30
2022-11-28T08:51:35.014Z,22.90
2022-11-28T08:54:02.089Z,19.73
2022-11-28T08:56:29.291Z,13.27
2022-11-28T08:58:56.455Z,15.75
2022-11-28T09:01:26.232Z,15.45
2022-11-28T09:03:55.486Z,13.95
2022-11-28T09:06:24.425Z,24.88
2022-11-28T09:08:52.688Z,19.10
2022-11-28T09:11:21.946Z,17.25
2022-11-28T09:13:49.801Z,17.48
2022-11-28T09:16:17.522Z,12.95
2022-11-28T09:18:44.859Z,12.25
2022-11-28T09:21:14.139Z,16.27
2022-11-28T09:23:43.014Z,18.08
2022-11-28T09:26:16.762Z,17.92
2022-11-28T09:28:44.405Z,16.13
2022-11-28T09:31:13.469Z,13.93
2022-11-28T09:33:41.094Z,14.07
2022-11-28T09:36:10.927Z,18.02
2022-11-28T09:38:38.513Z,14.50
2022-11-28T09:41:40.980Z,16.10
2022-11-28T09:44:33.248Z,16.60
2022-11-28T09:47:04.792Z,13.70
2022-11-28T09:49:42.515Z,13.93
2022-11-28T09:52:26.586Z,17.63
2022-11-28T09:55:19.506Z,15.18
2022-11-28T09:57:54.583Z,13.23
2022-11-28T10:00:37.858Z,17.55
2022-11-28T10:03:17.166Z,16.70
2022-11-28T10:06:29.558Z,13.45
2022-11-28T10:08:56.578Z,13.02
2022-11-28T10:11:38.246Z,13.45
2022-11-28T10:14:09.024Z,15.35
2022-11-28T10:17:15.633Z,16.35
2022-11-28T10:22:58.014Z,23.08
2022-11-28T10:25:30.583Z,15.57
2022-11-28T10:27:58.853Z,21.33
2022-11-28T10:30:30.790Z,14.23
2022-11-28T10:33:09.790Z,20.77
2022-11-28T10:35:55.401Z,12.48
2022-11-28T10:38:27.560Z,13.50
2022-11-28T10:41:05.358Z,16.08
2022-11-28T10:43:45.327Z,12.45
2022-11-28T10:46:31.275Z,25.75
2022-11-28T10:49:11.033Z,18.02
2022-11-28T10:52:07.756Z,14.02
2022-11-28T10:55:08.085Z,15.25
2022-11-28T10:58:34.127Z,15.32
2022-11-28T11:01:03.090Z,12.55
2022-11-28T11:03:36.323Z,13.30
2022-11-28T11:06:04.200Z,18.02
2022-11-28T11:08:37.390Z,15.05
2022-11-28T11:11:34.197Z,13.60
2022-11-28T11:14:07.144Z,16.63
2022-11-28T11:16:57.102Z,15.15
2022-11-28T11:19:31.251Z,14.73
2022-11-28T11:22:00.955Z,16.65
2022-11-28T11:24:28.187Z,16.15
2022-11-28T11:27:04.432Z,18.83
2022-11-28T11:29:38.063Z,13.93
2022-11-28T11:32:16.990Z,9.77
2022-11-28T11:34:45.758Z,17.42
2022-11-28T11:37:30.580Z,13.90
2022-11-28T11:39:58.749Z,17.50
2022-11-28T11:42:28.693Z,16.13
2022-11-28T11:44:56.995Z,10.98
2022-11-28T11:47:56.897Z,16.60
2022-11-28T11:50:27.500Z,19.13
2022-11-28T11:53:21.055Z,24.85
2022-11-28T11:55:51.779Z,12.98
2022-11-28T11:58:43.704Z,14.48
2022-11-28T12:01:16.757Z,13.60
2022-11-28T12:03:52.262Z,17.13
2022-11-28T12:06:29.053Z,20.60
2022-11-28T12:09:03.473Z,13.77
2022-11-28T12:11:36.227Z,17.20
2022-11-28T12:14:28.435Z,15.55
2022-11-28T12:17:47.727Z,11.60
2022-11-28T12:20:42.491Z,16.60
2022-11-28T12:23:43.829Z,15.25
2022-11-28T12:26:28.895Z,16.88
2022-11-28T12:29:22.280Z,15.75
2022-11-28T12:32:10.487Z,13.23
2022-11-28T12:35:15.695Z,15.48
2022-11-28T12:38:09.710Z,16.60
2022-11-28T12:41:01.534Z,13.20
2022-11-28T12:43:47.723Z,18.88
2022-11-28T12:46:33.781Z,15.30
2022-11-28T12:49:03.928Z,16.75
2022-11-28T12:51:55.040Z,16.63
2022-11-28T12:54:57.305Z,16.67
2022-11-28T12:58:13.393Z,15.00
2022-11-28T13:01:06.193Z,15.73
2022-11-28T13:03:55.643Z,20.98
2022-11-28T13:06:50.684Z,13.35
2022-11-28T13:09:36.187Z,23.05
2022-11-28T13:12:34.093Z,18.60
2022-11-28T13:15:09.435Z,16.33
2022-11-28T13:17:59.538Z,16.55
2022-11-28T13:20:45.854Z,20.40
2022-11-28T13:23:32.484Z,17.52
2022-11-28T13:26:18.871Z,18.50
2022-11-28T13:29:09.967Z,14.93
2022-11-28T13:31:48.520Z,17.48
2022-11-28T13:34:18.343Z,14.73
2022-11-28T13:40:17.740Z,13.50
2022-11-28T13:43:08.146Z,21.73
2022-11-28T13:51:32.240Z,18.33
2022-11-28T13:54:26.012Z,19.77
2022-11-28T13:57:06.983Z,16.30
2022-11-28T13:59:35.045Z,20.85
2022-11-28T14:02:05.490Z,18.63
2022-11-28T14:04:34.759Z,20.05
2022-11-28T14:07:04.785Z,20.20
2022-11-28T14:09:58.096Z,20.75
2022-11-28T14:13:03.584Z,23.83
2022-11-28T14:15:53.310Z,16.30
2022-11-28T14:18:57.236Z,19.77
2022-11-28T14:21:43.563Z,15.50
2022-11-28T14:24:20.067Z,17.45
2022-11-28T14:26:47.740Z,22.08
2022-11-28T14:29:24.945Z,16.83
2022-11-28T14:32:27.733Z,17.98
2022-11-28T14:34:49.438Z,20.40
2022-11-28T14:37:24.867Z,19.02
2022-11-28T14:39:52.475Z,19.42
2022-11-28T14:42:52.038Z,21.05
2022-11-28T14:45:43.680Z,16.60
2022-11-28T14:48:23.240Z,17.92
2022-11-28T14:51:00.620Z,21.95
2022-11-28T14:53:44.498Z,18.30
2022-11-28T14:56:41.311Z,16.83
2022-11-28T14:59:12.586Z,19.15
2022-11-28T15:01:54.929Z,16.20
2022-11-28T15:04:40.736Z,19.23
2022-11-28T15:07:38.803Z,20.05
2022-11-28T15:10:20.585Z,18.98
2022-11-28T15:13:00.155Z,20.52
2022-11-28T15:15:27.470Z,20.23
2022-11-28T15:17:55.597Z,16.77
2022-11-28T15:20:54.136Z,19.63
2022-11-28T15:23:26.696Z,19.13
2022-11-28T15:25:55.684Z,25.38
2022-11-28T15:28:25.596Z,17.55
2022-11-28T15:30:55.638Z,21.73
2022-11-28T15:33:25.393Z,34.97
2022-11-28T15:36:10.886Z,31.65
2022-11-28T15:38:41.650Z,30.08
2022-11-28T15:41:09.116Z,80.22
2022-11-28T15:43:42.396Z,64.65
2022-11-28T15:46:32.880Z,25.83
2022-11-28T15:49:01.856Z,22.08
2022-11-28T15:51:35.896Z,28.40
2022-11-28T15:54:13.380Z,21.25
2022-11-28T15:56:57.521Z,20.33
2022-11-28T15:59:24.895Z,19.70
2022-11-28T16:01:59.247Z,24.15
2022-11-28T16:04:28.087Z,29.10
2022-11-28T16:06:58.140Z,20.52
2022-11-28T16:09:35.929Z,18.10
2022-11-28T16:12:05.311Z,27.10
2022-11-28T16:14:36.091Z,24.00
2022-11-28T16:17:12.985Z,41.75
2022-11-28T16:19:40.729Z,25.85
2022-11-28T16:22:17.617Z,23.75
2022-11-28T16:24:55.581Z,28.55
2022-11-28T16:27:39.489Z,25.08
2022-11-28T16:30:25.373Z,21.17
2022-11-28T16:32:58.543Z,24.80
2022-11-28T16:35:42.273Z,22.42
2022-11-28T16:38:21.465Z,20.40
2022-11-28T16:40:48.956Z,24.83
2022-11-28T16:43:23.888Z,17.88
2022-11-28T16:46:23.007Z,21.38
2022-11-28T16:48:56.346Z,21.52
2022-11-28T16:51:26.165Z,19.42
2022-11-28T16:53:55.886Z,22.73
2022-11-28T16:56:31.771Z,25.38
2022-11-28T16:59:20.274Z,21.95
2022-11-28T17:01:51.979Z,22.92
2022-11-28T17:04:22.255Z,21.98
2022-11-28T17:06:50.185Z,22.98
2022-11-28T17:09:17.463Z,32.63
2022-11-28T17:12:18.095Z,23.70
2022-11-28T17:14:45.208Z,23.30
2022-11-28T17:17:14.985Z,22.88
2022-11-28T17:19:42.875Z,24.60
2022-11-28T17:22:16.470Z,32.75
2022-11-28T17:24:43.887Z,29.80
2022-11-28T17:27:13.470Z,24.58
2022-11-28T17:29:40.862Z,25.40
2022-11-28T17:32:12.075Z,28.90
2022-11-28T17:34:39.260Z,28.73
2022-11-28T17:37:06.503Z,25.83
2022-11-28T17:39:34.782Z,25.90
2022-11-28T17:42:02.006Z,27.13
2022-11-28T17:44:35.375Z,23.20
2022-11-28T17:47:03.173Z,22.17
2022-11-28T17:49:31.204Z,25.05
2022-11-28T17:51:58.966Z,25.17
2022-11-28T17:54:27.429Z,24.42
2022-11-28T17:56:54.889Z,26.42
2022-11-28T17:59:23.918Z,22.25
2022-11-28T18:01:51.335Z,26.75
2022-11-28T18:04:19.641Z,20.05
2022-11-28T18:06:47.886Z,18.95
2022-11-28T18:09:16.002Z,25.08
2022-11-28T18:11:46.501Z,26.33
2022-11-28T18:14:13.699Z,25.92
2022-11-28T18:16:44.074Z,25.83
2022-11-28T18:19:11.442Z,26.10
2022-11-28T18:21:38.782Z,22.90
2022-11-28T18:24:06.392Z,24.95
2022-11-28T18:26:34.032Z,24.13
2022-11-28T18:29:01.308Z,21.52
2022-11-28T18:31:30.000Z,23.88
2022-11-28T18:34:02.343Z,22.38
2022-11-28T18:36:31.777Z,21.90
2022-11-28T18:39:11.839Z,20.98
2022-11-28T18:41:40.224Z,25.77
2022-11-28T18:44:08.182Z,22.92
2022-11-28T18:46:35.668Z,21.63
2022-11-28T18:49:03.549Z,26.20
2022-11-28T18:51:33.124Z,27.33
2022-11-28T18:54:02.470Z,23.50
2022-11-28T18:56:30.483Z,32.30
2022-11-28T18:58:58.582Z,19.17
2022-11-28T19:01:29.233Z,30.27
2022-11-28T19:04:07.337Z,22.02
2022-11-28T19:06:36.325Z,25.70
2022-11-28T19:09:05.976Z,26.80
2022-11-28T19:11:33.607Z,25.88
2022-11-28T19:14:00.750Z,25.00
2022-11-28T19:16:35.369Z,23.00
2022-11-28T19:19:03.833Z,20.20
2022-11-28T19:21:34.225Z,24.90
2022-11-28T19:24:02.396Z,23.42
2022-11-28T19:26:33.586Z,22.83
2022-11-28T19:29:01.474Z,24.77
2022-11-28T19:31:33.982Z,24.50
2022-11-28T19:34:03.942Z,24.40
2022-11-28T19:36:36.241Z,21.38
2022-11-28T19:39:04.639Z,29.77
2022-11-28T19:41:32.488Z,34.42
2022-11-28T19:44:00.199Z,23.73
2022-11-28T19:46:30.588Z,31.50
2022-11-28T19:49:02.802Z,27.88
2022-11-28T19:51:29.908Z,30.20
2022-11-28T19:54:01.488Z,25.98
2022-11-28T19:56:31.571Z,29.73
2022-11-28T19:58:59.397Z,26.65
2022-11-28T20:01:26.804Z,23.75
2022-11-28T20:03:54.380Z,35.20
2022-11-28T20:06:30.297Z,27.60
2022-11-28T20:09:01.361Z,35.83
2022-11-28T20:11:31.740Z,34.35
2022-11-28T20:14:01.388Z,35.20
2022-11-28T20:16:31.418Z,33.58
2022-11-28T20:19:00.699Z,33.08
2022-11-28T20:21:28.512Z,30.27
2022-11-28T20:23:58.345Z,31.10
2022-11-28T20:26:27.173Z,28.13
2022-11-28T20:28:56.341Z,37.85
2022-11-28T20:31:25.240Z,38.15
2022-11-28T20:33:53.517Z,37.35
2022-11-28T20:36:23.313Z,45.65
2022-11-28T20:38:51.448Z,45.75
2022-11-28T20:41:20.618Z,37.40
2022-11-28T20:43:48.477Z,31.52
2022-11-28T20:46:15.627Z,36.97
2022-11-28T20:48:43.422Z,35.13
2022-11-28T20:51:13.151Z,35.80
2022-11-28T20:53:41.581Z,41.30
2022-11-28T20:56:14.831Z,35.50
2022-11-28T20:58:42.542Z,39.95
2022-11-28T21:01:18.110Z,33.45
2022-11-28T21:03:45.918Z,44.97
2022-11-28T21:06:13.777Z,38.35
2022-11-28T21:08:41.780Z,43.03
2022-11-28T21:11:36.553Z,39.95
2022-11-28T21:14:04.656Z,42.08
2022-11-28T21:16:33.101Z,45.78
2022-11-28T21:19:06.887Z,41.13
2022-11-28T21:21:38.337Z,41.90
2022-11-28T21:24:08.910Z,44.80
2022-11-28T21:26:41.048Z,42.72
2022-11-28T21:29:11.533Z,41.88
2022-11-28T21:31:42.359Z,42.17
2022-11-28T21:34:16.945Z,39.47
2022-11-28T21:36:44.749Z,41.90
2022-11-28T21:39:20.225Z,44.83
2022-11-28T21:41:48.105Z,39.45
2022-11-28T21:44:15.380Z,47.22
2022-11-28T21:46:42.581Z,46.55
2022-11-28T21:49:09.717Z,41.00
2022-11-28T21:51:37.024Z,43.92
2022-11-28T21:54:04.582Z,38.28
2022-11-28T21:56:31.783Z,38.83
2022-11-28T21:58:58.912Z,45.65
2022-11-28T22:01:26.166Z,48.13
2022-11-28T22:03:57.700Z,33.50
2022-11-28T22:06:28.757Z,43.80
2022-11-28T22:08:55.828Z,49.35
2022-11-28T22:11:24.421Z,44.08
2022-11-28T22:13:52.991Z,49.85
2022-11-28T22:16:28.632Z,42.10
2022-11-28T22:18:58.552Z,41.60
2022-11-28T22:24:13.339Z,43.05
2022-11-28T22:26:40.621Z,44.47
2022-11-28T22:29:07.733Z,48.30
2022-11-28T22:31:35.102Z,41.42
2022-11-28T22:34:02.181Z,47.40
2022-11-28T22:36:29.404Z,43.95
2022-11-28T22:38:58.155Z,42.60
2022-11-28T22:41:29.339Z,42.50
2022-11-28T22:43:59.714Z,39.40
2022-11-28T22:46:27.374Z,42.47
2022-11-28T22:48:54.728Z,43.17
2022-11-28T22:51:25.166Z,50.92
2022-11-28T22:54:01.468Z,42.67
2022-11-28T22:56:30.447Z,41.75
2022-11-28T22:58:57.804Z,37.08
2022-11-28T23:01:31.004Z,42.35
2022-11-28T23:03:58.902Z,49.03
2022-11-28T23:06:28.897Z,44.55
2022-11-28T23:09:00.635Z,43.38
2022-11-28T23:11:29.582Z,45.17
2022-11-28T23:14:00.495Z,43.75
2022-11-28T23:16:34.747Z,44.63
2022-11-28T23:19:07.467Z,53.53
2022-11-28T23:21:37.800Z,48.38
2022-11-28T23:24:06.102Z,50.78
2022-11-28T23:26:34.076Z,47.20
2022-11-28T23:29:02.641Z,49.10
2022-11-28T23:31:32.594Z,56.55
2022-11-28T23:34:01.081Z,45.08
2022-11-28T23:36:38.500Z,48.83
2022-11-28T23:39:15.729Z,48.97
2022-11-28T23:41:43.696Z,49.30
2022-11-28T23:44:12.507Z,50.17
2022-11-28T23:46:40.667Z,55.35
2022-11-28T23:49:08.543Z,50.78
2022-11-28T23:51:36.218Z,51.60
2022-11-28T23:54:03.779Z,47.25
2022-11-28T23:56:33.584Z,50.92
2022-11-28T23:59:03.144Z,45.38
